Tiempo atmosférico en la estación meteorológica de Benamejí, Córdoba (465 m.)



Fecha
DESCASC
Temp. máxima en grados centígrados (hora)
DESCASC
Temp. mínima en grados centígrados (hora)
DESCASC
Temp. media en grados centígrados
DESCASC
Racha de viento máxima en m/sg (hora)
DESCASC
Velocidad máxima media en intervalos de 10 minutos(hora)
DESCASC
Precipitaciones diarias en mm
DESCASC
Precipitaciones de 00:00 a 06:00 en mm
DESCASC
Precipitaciones de 06:00 a 12:00 en mm
DESCASC
Precipitaciones de 12:00 a 18:00 en mm
DESCASC
Precipitaciones de 18:00 a 24:00 en mm
DESCASC
08-12-2019 15.6 (16:00) 5.2 (08:10) 10.4 5.28 (16:30) 3.33 (05:30) 0 0 0 0 0
07-12-2019 17.4 (15:40) 7.6 (08:10) 12.5 3.89 (16:40) 2.78 (07:50) 0 0 0 0 0
06-12-2019 17.4 (14:50) 8.1 (06:30) 12.8 5.28 (21:40) 4.17 (21:40) 0 0 0 0 0
05-12-2019 13.9 (14:40) 4.8 (00:00) 9.3 4.17 (09:40) 2.78 (14:10) 0.2 0 0 0 0.2
04-12-2019 12.7 (12:40) 7.1 (00:00) 9.9 5 (14:30) 3.06 (14:30) 0 0 0 0 0
03-12-2019 13.9 (15:10) 7.1 (00:00) 10.5 5 (14:40) 3.33 (15:30) 0.2 0.2 0 0 0
02-12-2019 13 (15:20) 7.9 (00:00) 10.5 5 (16:40) 4.17 (16:40) 10.2 3.2 0 7 0
01-12-2019 13.9 (12:40) 8.5 (00:00) 11.2 7.5 (17:40) 4.72 (15:10) 4 0 0 3.4 0.6
30-11-2019 19.4 (14:30) 7.9 (00:00) 13.6 6.94 (17:10) 4.17 (17:10) 0 0 0 0 0
29-11-2019 17.4 (15:50) 7.4 (00:00) 12.4 4.72 (16:30) 3.33 (16:50) 0 0 0 0 0
28-11-2019 15.3 (13:50) 9.1 (00:00) 12.2 5 (17:00) 3.06 (14:30) 0 0 0 0 0
27-11-2019 16.2 (15:40) 12.1 (00:00) 14.2 6.67 (04:10) 3.89 (13:20) 0 0 0 0 0
26-11-2019 16.6 (16:20) 11.8 (00:00) 14.2 7.22 (21:40) 3.89 (21:40) 1.2 1.2 0 0 0
25-11-2019 14.1 (18:40) 8.5 (00:00) 11.3 5 (18:40) 3.06 (18:40) 2 0 0.8 0.4 0.8
24-11-2019 12.7 (15:30) 4.8 (00:00) 8.8 6.11 (16:00) 3.06 (17:10) 0 0 0 0 0
23-11-2019 12.6 (16:30) 7.4 (00:00) 10 15.28 (04:20) 10 (04:50) 4 1.4 2.6 0 0
22-11-2019 14.8 (19:00) 10.8 (00:00) 12.8 17.78 (18:40) 10.56 (18:40) 23.6 1 12.4 5 5.2
21-11-2019 13.9 (15:00) 8.3 (00:00) 11.1 9.44 (15:40) 6.94 (15:40) 5.8 4.6 0.2 1 0
20-11-2019 10.6 (14:40) 4.8 (00:00) 7.7 8.06 (17:50) 5.83 (20:40) 1.8 0 0 1.6 0.2
19-11-2019 12.9 (16:00) 3.7 (00:00) 8.3 3.89 (06:40) 3.33 (06:40) 0 0 0 0 0
18-11-2019 11.8 (00:00) 6.2 (00:00) 9 13.89 (01:50) 8.61 (02:20) 16.2 16 0.2 0 0
17-11-2019 12.3 (22:40) 1.5 (00:00) 6.9 10.56 (21:40) 6.94 (21:40) 2 0 0.6 1.2 0.2
16-11-2019 10.1 (15:50) 1.9 (00:00) 6 5.28 (16:40) 3.33 (00:20) 0 0 0 0 0
15-11-2019 8.8 (15:00) 3.6 (00:00) 6.2 9.72 (03:00) 6.39 (02:50) 0.2 0 0 0.2 0
14-11-2019 12 (00:00) 7.2 (00:00) 9.6 14.44 (13:40) 8.61 (12:10) 3 0 0 3 0
13-11-2019 15 (17:20) 9.2 (00:00) 12.1 10 (07:40) 6.94 (07:30) 1.8 0 1 0.8 0
12-11-2019 14.1 (15:40) 6.9 (00:00) 10.5 6.39 (16:40) 3.61 (16:30) 0.2 0 0 0.2 0

Gráficas

Temp. máximas Temp. mínimas Temp. medias Precipitaciones Rachas de viento máximas Velocidades máximas media en intervalos de 10 minutos

Datos horarios

Fecha y hora oficial Temperatura (ºC) Velocidad del viento (km/h) Dirección del viento Racha (km/h) Dirección de racha Precipitación (mm) Presión (hPa) Tendencia (hPa) Humedad (%)
2019-12-11 23:00:00 7.1 7 Noroeste 12 Noroeste 0 -- -- 84
2019-12-11 22:00:00 7.8 5 Noroeste 14 Noroeste 0 -- -- 81
2019-12-11 21:00:00 8.7 9 Noroeste 17 Noroeste 0 -- -- 80
2019-12-11 20:00:00 10.1 9 Norte 18 Noroeste 0 -- -- 74
2019-12-11 19:00:00 10.7 10 Noroeste 22 Oeste 0 -- -- 68
2019-12-11 18:00:00 11.4 12 Noroeste 22 Oeste 0 -- -- 62
2019-12-11 17:00:00 12.1 11 Noroeste 22 Noroeste 0 -- -- 57
2019-12-11 16:00:00 13 14 Noroeste 21 Noroeste 0 -- -- 52
2019-12-11 15:00:00 13.2 8 Noroeste 13 Noroeste 0 -- -- 52
2019-12-11 14:00:00 12.7 8 Noroeste 14 Noroeste 0 -- -- 53
2019-12-11 13:00:00 12.6 6 Noroeste 14 Noroeste 0 -- -- 58
2019-12-11 12:00:00 11.2 5 Noroeste 11 Noroeste 0 -- -- 59
2019-12-11 11:00:00 8.9 3 Este 8 Nordeste 0 -- -- 68
2019-12-11 10:00:00 6.4 5 Nordeste 13 Nordeste 0 -- -- 74
2019-12-11 09:00:00 4.7 10 Nordeste 12 Nordeste 0 -- -- 82
2019-12-11 08:00:00 4.1 2 Este 13 Nordeste 0 -- -- 83
2019-12-11 07:00:00 4.2 3 Este 11 Nordeste 0 -- -- 83
2019-12-11 06:00:00 4.8 8 Nordeste 13 Nordeste 0 -- -- 82
2019-12-11 05:00:00 5 3 Este 13 Nordeste 0 -- -- 82
2019-12-11 04:00:00 6.3 4 Este 13 Este 0 -- -- 71
2019-12-11 03:00:00 6.3 11 Nordeste 12 Nordeste 0 -- -- 77
2019-12-11 02:00:00 6.9 5 Este 11 Este 0 -- -- 78
2019-12-11 01:00:00 7.6 11 Nordeste 12 Nordeste 0 -- -- 73
2019-12-11 00:00:00 8.1 8 Nordeste 9 Este 0 -- -- 69
2019-12-10 23:00:00 9 6 Este 9 Este 0 -- -- 65
2019-12-10 22:00:00 9.6 6 Sudeste 9 Sudeste 0 -- -- 63
2019-12-10 21:00:00 10.7 2 Sur 5 Sudoeste 0 -- -- 58
2019-12-10 20:00:00 10.8 3 Sudoeste 9 Oeste 0 -- -- 59
2019-12-10 19:00:00 11.5 5 Sudoeste 9 Oeste 0 -- -- 58
2019-12-10 18:00:00 13.7 6 Sudoeste 11 Oeste 0 -- -- 53
2019-12-10 17:00:00 16 3 Oeste 15 Noroeste 0 -- -- 44
2019-12-10 16:00:00 16.1 9 Noroeste 14 Oeste 0 -- -- 42
2019-12-10 15:00:00 16.5 8 Noroeste 14 Oeste 0 -- -- 46
2019-12-10 14:00:00 15.6 3 Oeste 10 Noroeste 0 -- -- 40
2019-12-10 13:00:00 14.7 3 Oeste 7 Sudoeste 0 -- -- 61
2019-12-10 12:00:00 12.4 4 Sudoeste 6 Sudoeste 0 -- -- 71
2019-12-10 11:00:00 9.3 3 Oeste 5 Oeste 0 -- -- 85
2019-12-10 10:00:00 7.6 0 Calma 9 Nordeste 0 -- -- 96
2019-12-10 09:00:00 5.7 5 Nordeste 8 Nordeste 0.2 -- -- 96
2019-12-10 08:00:00 4.9 0 Calma 6 Nordeste 0 -- -- 96
2019-12-10 07:00:00 5.4 3 Este 8 Este 0 -- -- 97
2019-12-10 06:00:00 5.7 6 Sur 10 Sur 0 -- -- 96
2019-12-10 05:00:00 6.1 4 Sudeste 5 Sudeste 0 -- -- 95
2019-12-10 04:00:00 6.5 3 Nordeste 6 Este 0 -- -- 94
2019-12-10 03:00:00 8.6 5 Este 9 Nordeste 0 -- -- 95
2019-12-10 02:00:00 8.3 3 Norte 6 Norte 0 -- -- 94
2019-12-10 01:00:00 9.6 5 Este 9 Este 0 -- -- 94
2019-12-10 00:00:00 9.2 6 Este 8 Este 0 -- -- 93
2019-12-09 23:00:00 9.9 4 Sur 9 Sudeste 0 -- -- 91
2019-12-09 22:00:00 10.2 6 Sur 8 Sur 0 -- -- 90
2019-12-09 21:00:00 10.8 0 Calma 4 Sur 0 -- -- 87
2019-12-09 20:00:00 10.9 3 Sudoeste 11 Oeste 0 -- -- 87
2019-12-09 19:00:00 11.8 4 Oeste 10 Noroeste 0 -- -- 84
2019-12-09 18:00:00 13.3 7 Noroeste 10 Noroeste 0 -- -- 79
2019-12-09 17:00:00 14.7 6 Noroeste 11 Oeste 0 -- -- 75
2019-12-09 16:00:00 15 5 Oeste 10 Oeste 0 -- -- 75
2019-12-09 15:00:00 13.9 4 Norte 17 Norte 0 -- -- 77
2019-12-09 14:00:00 14.3 10 Norte 19 Noroeste 0 -- -- 78
2019-12-09 13:00:00 14 8 Noroeste 13 Oeste 0 -- -- 78
2019-12-09 12:00:00 13.1 3 Noroeste 8 Oeste 0 -- -- 84
2019-12-09 11:00:00 12.1 2 Oeste 5 Oeste 0 -- -- 88
2019-12-09 10:00:00 10.7 3 Oeste 5 Oeste 0 -- -- 91
2019-12-09 09:00:00 9.9 2 Norte 11 Noroeste 0 -- -- 92
2019-12-09 08:00:00 10.2 4 Noroeste 7 Noroeste 0 -- -- 89
2019-12-09 07:00:00 10.4 0 Calma 3 Noroeste 0 -- -- 87
2019-12-09 06:00:00 10.4 3 Noroeste 5 Oeste 0 -- -- 87
2019-12-09 05:00:00 10.5 0 Calma 5 Este 0 -- -- 87
2019-12-09 04:00:00 10.5 3 Nordeste 6 Nordeste 0 -- -- 86
2019-12-09 03:00:00 10.5 3 Nordeste 4 Nordeste 0 -- -- 86
2019-12-09 02:00:00 10.1 3 Sudoeste 7 Nordeste 0 -- -- 85
2019-12-09 01:00:00 10 3 Norte 5 Norte 0 -- -- 84
2019-12-09 00:00:00 9.9 5 Este 8 Este 0 -- -- 85
2019-12-08 23:00:00 10.1 2 Noroeste 5 Noroeste 0 -- -- 83
2019-12-08 22:00:00 11.3 3 Este 7 Sudeste 0 -- -- 76
2019-12-08 21:00:00 11.2 3 Sudeste 8 Norte 0 -- -- 78
2019-12-08 20:00:00 11.7 4 Noroeste 9 Noroeste 0 -- -- 77
2019-12-08 19:00:00 12.3 6 Noroeste 10 Noroeste 0 -- -- 74
2019-12-08 18:00:00 13 6 Noroeste 12 Noroeste 0 -- -- 72
2019-12-08 17:00:00 14.2 6 Noroeste 19 Noroeste 0 -- -- 66
2019-12-08 16:00:00 15.6 7 Noroeste 18 Noroeste 0 -- -- 60
2019-12-08 15:00:00 15.4 8 Noroeste 13 Sudoeste 0 -- -- 63
2019-12-08 14:00:00 14.8 6 Noroeste 13 Oeste 0 -- -- 65
2019-12-08 13:00:00 13.7 4 Norte 8 Nordeste 0 -- -- 71
2019-12-08 12:00:00 11.7 5 Este 10 Nordeste 0 -- -- 76
2019-12-08 11:00:00 8.7 9 Nordeste 12 Nordeste 0 -- -- 84
2019-12-08 10:00:00 6.5 10 Nordeste 14 Nordeste 0 -- -- 93
2019-12-08 09:00:00 5.5 6 Este 13 Este 0 -- -- 95
2019-12-08 08:00:00 5.3 11 Nordeste 14 Este 0 -- -- 95
2019-12-08 07:00:00 5.5 5 Nordeste 11 Este 0 -- -- 94
2019-12-08 06:00:00 5.9 4 Este 14 Nordeste 0 -- -- 94
2019-12-08 05:00:00 6.4 10 Nordeste 11 Nordeste 0 -- -- 93
2019-12-08 04:00:00 7.1 6 Nordeste 9 Nordeste 0 -- -- 91
2019-12-08 03:00:00 6.9 9 Nordeste 10 Nordeste 0 -- -- 92
2019-12-08 02:00:00 8 6 Este 8 Este 0 -- -- 87
2019-12-08 01:00:00 8.9 3 Sudeste 6 Este 0 -- -- 86
2019-12-08 00:00:00 8.8 0 Calma 10 Sur 0 -- -- 84
2019-12-07 23:00:00 9.3 6 Sur 8 Sur 0 -- -- 83
2019-12-07 22:00:00 9.9 5 Sur 12 Sur 0 -- -- 77
2019-12-07 21:00:00 11.6 0 Calma 5 Noroeste 0 -- -- 68
2019-12-07 20:00:00 12.2 5 Noroeste 6 Noroeste 0 -- -- 67
2019-12-07 19:00:00 12.8 4 Noroeste 8 Noroeste 0 -- -- 64
2019-12-07 18:00:00 13.9 4 Noroeste 12 Noroeste 0 -- -- 59
2019-12-07 17:00:00 15.7 8 Noroeste 14 Noroeste 0 -- -- 53
2019-12-07 16:00:00 16.7 7 Noroeste 14 Oeste 0 -- -- 47
2019-12-07 15:00:00 16.4 5 Noroeste 12 Noroeste 0 -- -- 48
2019-12-07 14:00:00 16 4 Noroeste 9 Noroeste 0 -- -- 48
2019-12-07 13:00:00 14.8 4 Norte 7 Norte 0 -- -- 54
2019-12-07 12:00:00 13.6 3 Nordeste 11 Este 0 -- -- 61
2019-12-07 11:00:00 10.9 8 Este 12 Este 0 -- -- 71
2019-12-07 10:00:00 9.1 8 Nordeste 13 Nordeste 0 -- -- 80
2019-12-07 09:00:00 7.8 6 Nordeste 11 Este 0 -- -- 84
2019-12-07 08:00:00 7.7 7 Nordeste 14 Nordeste 0 -- -- 83
2019-12-07 07:00:00 8.3 7 Este 11 Este 0 -- -- 81
2019-12-07 06:00:00 8.3 5 Nordeste 10 Este 0 -- -- 81
2019-12-07 05:00:00 9.1 6 Este 9 Este 0 -- -- 79
2019-12-07 04:00:00 9 7 Nordeste 9 Este 0 -- -- 85
2019-12-07 03:00:00 9.6 3 Sudeste 6 Este 0 -- -- 79
2019-12-07 02:00:00 9.8 4 Sur 7 Sur 0 -- -- 82
2019-12-07 01:00:00 9.7 0 Calma 6 Nordeste 0 -- -- 86
2019-12-07 00:00:00 9.4 2 Este 14 Sur 0 -- -- 89
2019-12-06 23:00:00 9.7 6 Sudeste 16 Sur 0 -- -- 90
2019-12-06 22:00:00 10 14 Sur 19 Sur 0 -- -- 88
2019-12-06 21:00:00 10.6 13 Sur 17 Sur 0 -- -- 75
2019-12-06 20:00:00 12.3 4 Sur 8 Sur 0 -- -- 67
2019-12-06 19:00:00 12.8 3 Sudoeste 8 Noroeste 0 -- -- 65
2019-12-06 18:00:00 13.9 5 Noroeste 13 Noroeste 0 -- -- 60
2019-12-06 17:00:00 16.1 9 Noroeste 14 Noroeste 0 -- -- 53
2019-12-06 16:00:00 17 3 Norte 10 Nordeste 0 -- -- 45
2019-12-06 15:00:00 17.1 5 Nordeste 14 Este 0 -- -- 47
2019-12-06 14:00:00 16.7 10 Sudeste 18 Sudeste 0 -- -- 54
2019-12-06 13:00:00 15.8 4 Sudeste 10 Sudeste 0 -- -- 58
2019-12-06 12:00:00 14.4 4 Nordeste 12 Nordeste 0 -- -- 64
2019-12-06 11:00:00 13 6 Nordeste 13 Nordeste 0 -- -- 65
2019-12-06 10:00:00 10.6 5 Nordeste 9 Nordeste 0 -- -- 74
2019-12-06 09:00:00 8.4 3 Este 10 Norte 0 -- -- 82
2019-12-06 08:00:00 8.9 6 Sudeste 12 Sudeste 0 -- -- 77
2019-12-06 07:00:00 8.4 6 Este 15 Nordeste 0 -- -- 81
2019-12-06 06:00:00 8.4 5 Noroeste 10 Nordeste 0 -- -- 80
2019-12-06 05:00:00 8.9 3 Sur 5 Nordeste 0 -- -- 78
2019-12-06 04:00:00 9.4 6 Este 11 Nordeste 0 -- -- 77
2019-12-06 03:00:00 9.2 7 Nordeste 19 Nordeste 0 -- -- 81
2019-12-06 02:00:00 8.9 8 Nordeste 17 Nordeste 0 -- -- 81
2019-12-06 01:00:00 9.5 9 Nordeste 14 Nordeste 0 -- -- 80
2019-12-06 00:00:00 9.4 5 Nordeste 7 Nordeste 0 -- -- 86
2019-12-05 23:00:00 10.4 5 Este 8 Sudeste 0 -- -- 79
2019-12-05 22:00:00 10.6 5 Sudeste 7 Sudeste 0 -- -- 79
2019-12-05 21:00:00 10.8 3 Este 5 Este 0 -- -- 79
2019-12-05 20:00:00 11.1 4 Este 8 Noroeste 0.2 -- -- 81
2019-12-05 19:00:00 12 2 Oeste 5 Sur 0 -- -- 73
2019-12-05 18:00:00 12.5 4 Sur 6 Nordeste 0 -- -- 73
2019-12-05 17:00:00 13 0 Calma 11 Nordeste 0 -- -- 64
2019-12-05 16:00:00 13.6 5 Nordeste 12 Norte 0 -- -- 63
2019-12-05 15:00:00 13.6 8 Norte 13 Norte 0 -- -- 61
2019-12-05 14:00:00 13.4 8 Norte 15 Nordeste 0 -- -- 63
2019-12-05 13:00:00 12.7 3 Norte 9 Nordeste 0 -- -- 68
2019-12-05 12:00:00 11.2 4 Nordeste 13 Nordeste 0 -- -- 77
2019-12-05 11:00:00 9.1 7 Nordeste 11 Este 0 -- -- 83
2019-12-05 10:00:00 7.3 7 Este 15 Nordeste 0 -- -- 92
2019-12-05 09:00:00 5.4 6 Nordeste 13 Nordeste 0 -- -- 96
2019-12-05 08:00:00 5 4 Este 10 Este 0 -- -- 96
2019-12-05 07:00:00 4.8 8 Nordeste 12 Nordeste 0 -- -- 95
2019-12-05 06:00:00 5.1 6 Este 13 Nordeste 0 -- -- 95
2019-12-05 05:00:00 5.5 6 Este 11 Este 0 -- -- 93
2019-12-05 04:00:00 6.3 4 Este 12 Nordeste 0 -- -- 94
2019-12-05 03:00:00 7 4 Este 9 Este 0 -- -- 94
2019-12-05 02:00:00 7 3 Este 8 Nordeste 0 -- -- 95
2019-12-05 01:00:00 7.1 4 Nordeste 6 Nordeste 0 -- -- 90
2019-12-05 00:00:00 7.8 5 Este 9 Este 0 -- -- 90
2019-12-04 23:00:00 7.6 4 Sudeste 8 Nordeste 0 -- -- 92
2019-12-04 22:00:00 8 4 Noroeste 6 Sudoeste 0 -- -- 88
2019-12-04 21:00:00 8.5 5 Oeste 13 Oeste 0 -- -- 88
2019-12-04 20:00:00 8.8 4 Sudoeste 6 Sudoeste 0 -- -- 87
2019-12-04 19:00:00 9.7 3 Noroeste 8 Norte 0 -- -- 82
2019-12-04 18:00:00 10.4 4 Noroeste 10 Noroeste 0 -- -- 80
2019-12-04 17:00:00 11.6 5 Norte 14 Noroeste 0 -- -- 78
2019-12-04 16:00:00 12.2 10 Noroeste 17 Noroeste 0 -- -- 76
2019-12-04 15:00:00 12.5 8 Noroeste 18 Noroeste 0 -- -- 74
2019-12-04 14:00:00 11.3 9 Noroeste 16 Oeste 0 -- -- 79
2019-12-04 13:00:00 12 7 Sudoeste 17 Sudoeste 0 -- -- 76
2019-12-04 12:00:00 12.1 8 Sudoeste 15 Oeste 0 -- -- 76
2019-12-04 11:00:00 10 5 Sudoeste 8 Sudoeste 0 -- -- 85
2019-12-04 10:00:00 8.1 3 Sur 5 Sudoeste 0 -- -- 94
2019-12-04 09:00:00 7.7 0 Calma 5 Sur 0 -- -- 93
2019-12-04 08:00:00 7.4 5 Sur 7 Sur 0 -- -- 93
2019-12-04 07:00:00 7.6 2 Nordeste 8 Sudoeste 0 -- -- 94
2019-12-04 06:00:00 7.8 5 Sudoeste 7 Sudoeste 0 -- -- 93
2019-12-04 05:00:00 7.3 3 Sur 9 Sudoeste 0 -- -- 94
2019-12-04 04:00:00 8.3 4 Sudeste 8 Sudeste 0 -- -- 89
2019-12-04 03:00:00 8.6 3 Sudoeste 7 Sudoeste 0 -- -- 89
2019-12-04 02:00:00 9 5 Sudoeste 8 Sudoeste 0 -- -- 88
2019-12-04 01:00:00 8.9 3 Sudoeste 10 Sudoeste 0 -- -- 86
2019-12-04 00:00:00 9.4 0 Calma 5 Este 0 -- -- 82
2019-12-03 23:00:00 9.5 0 Calma 3 Sudoeste 0 -- -- 83
2019-12-03 22:00:00 9.7 0 Calma 8 Este 0 -- -- 79
2019-12-03 21:00:00 9.9 0 Calma 5 Sur 0 -- -- 78
2019-12-03 20:00:00 10.5 0 Calma 6 Este 0 -- -- 81
2019-12-03 19:00:00 11.3 0 Calma 10 Noroeste 0 -- -- 80
2019-12-03 18:00:00 12 6 Noroeste 10 Noroeste 0 -- -- 79
2019-12-03 17:00:00 13 3 Norte 10 Noroeste 0 -- -- 74
2019-12-03 16:00:00 13 6 Noroeste 17 Noroeste 0 -- -- 75
2019-12-03 15:00:00 13.7 9 Oeste 18 Noroeste 0 -- -- 75
2019-12-03 14:00:00 12.1 3 Noroeste 8 Noroeste 0 -- -- 81
2019-12-03 13:00:00 11.1 3 Norte 12 Norte 0 -- -- 83
2019-12-03 12:00:00 10.8 3 Nordeste 8 Norte 0 -- -- 88
2019-12-03 11:00:00 9 4 Sur 8 Sur 0 -- -- 95
2019-12-03 10:00:00 7.8 3 Noroeste 10 Nordeste 0 -- -- 95
2019-12-03 09:00:00 7.4 0 Calma 8 Norte 0 -- -- 95
2019-12-03 08:00:00 7.2 5 Norte 7 Noroeste 0 -- -- 94
2019-12-03 07:00:00 7.2 6 Noroeste 9 Norte 0 -- -- 94
2019-12-03 06:00:00 7.7 2 Sur 6 Norte 0 -- -- 93
2019-12-03 05:00:00 8.2 2 Este 4 Sudeste 0 -- -- 93
2019-12-03 04:00:00 8.1 0 Calma 5 Noroeste 0.2 -- -- 93
2019-12-03 03:00:00 8.1 3 Sur 6 Este 0 -- -- 91
2019-12-03 02:00:00 8.3 0 Calma 4 Nordeste 0 -- -- 91
2019-12-03 01:00:00 8.4 2 Este 8 Nordeste 0 -- -- 91
2019-12-03 00:00:00 8.3 0 Calma 6 Norte 0 -- -- 91
2019-12-02 23:00:00 8.9 3 Sudeste 8 Sudeste 0 -- -- 87
2019-12-02 22:00:00 8.9 4 Sudeste 5 Este 0 -- -- 88
2019-12-02 21:00:00 9.2 3 Este 8 Sudeste 0 -- -- 88
2019-12-02 20:00:00 9.4 3 Sudeste 6 Sudeste 0 -- -- 84
2019-12-02 19:00:00 9.6 2 Sur 6 Oeste 0 -- -- 86
2019-12-02 18:00:00 10 5 Nordeste 9 Sudeste 0 -- -- 84
2019-12-02 17:00:00 10.9 8 Sudeste 18 Norte 7 -- -- 81
2019-12-02 16:00:00 12.9 3 Nordeste 6 Sudoeste 0 -- -- 72
2019-12-02 15:00:00 12.9 0 Calma 14 Nordeste 0 -- -- 70
2019-12-02 14:00:00 12.6 9 Nordeste 16 Nordeste 0 -- -- 69
2019-12-02 13:00:00 12.2 5 Nordeste 16 Este 0 -- -- 77
2019-12-02 12:00:00 11.5 8 Nordeste 15 Nordeste 0 -- -- 83
2019-12-02 11:00:00 9.3 4 Nordeste 7 Este 0 -- -- 90
2019-12-02 10:00:00 8.3 3 Este 10 Este 0 -- -- 91
2019-12-02 09:00:00 7.9 4 Este 11 Nordeste 0 -- -- 93
2019-12-02 08:00:00 8.1 5 Este 10 Este 0 -- -- 94
2019-12-02 07:00:00 8.2 5 Este 10 Este 0 -- -- 94
2019-12-02 06:00:00 8.4 5 Este 15 Sudeste 0.2 -- -- 95
2019-12-02 05:00:00 8.6 5 Nordeste 14 Este 0 -- -- 96
2019-12-02 04:00:00 8.5 6 Nordeste 13 Nordeste 0 -- -- 96
2019-12-02 03:00:00 8.8 10 Este 18 Este 2.2 -- -- 96
2019-12-02 02:00:00 8.7 3 Este 10 Sur 0.8 -- -- 95
2019-12-02 01:00:00 8.7 0 Calma 12 Sur 0 -- -- 94
2019-12-02 00:00:00 8.5 9 Sur 13 Sur 0 -- -- 94
2019-12-01 23:00:00 9 4 Sur 14 Sur 0.2 -- -- 95
2019-12-01 22:00:00 8.6 11 Sur 14 Sur 0 -- -- 95
2019-12-01 21:00:00 8.9 5 Sudeste 13 Sur 0 -- -- 94
2019-12-01 20:00:00 9.5 7 Sur 17 Sudoeste 0.4 -- -- 94
2019-12-01 19:00:00 9.3 9 Sudoeste 23 Sudoeste 0 -- -- 93
2019-12-01 18:00:00 10.5 9 Sudoeste 27 Oeste 3.2 -- -- 93
2019-12-01 17:00:00 12.9 8 Sudoeste 21 Sur 0 -- -- 74
2019-12-01 16:00:00 12.9 8 Oeste 25 Oeste 0.2 -- -- 79
2019-12-01 15:00:00 13.3 16 Sudoeste 24 Sudoeste 0 -- -- 66
2019-12-01 14:00:00 13.8 13 Sudoeste 21 Oeste 0 -- -- 66
2019-12-01 13:00:00 13.8 11 Oeste 22 Sudoeste 0 -- -- 66
2019-12-01 12:00:00 13 12 Oeste 22 Oeste 0 -- -- 71
2019-12-01 11:00:00 12.2 3 Nordeste 7 Nordeste 0 -- -- 82
2019-12-01 10:00:00 11 0 Calma 8 Sudeste 0 -- -- 91
2019-12-01 09:00:00 10.1 5 Sudeste 10 Sudeste 0 -- -- 92
2019-12-01 08:00:00 9.4 6 Sudeste 8 Sudeste 0 -- -- 93
2019-12-01 07:00:00 9.5 6 Sur 10 Sudoeste 0 -- -- 93
2019-12-01 06:00:00 10.2 10 Sudoeste 15 Sudoeste 0 -- -- 93
2019-12-01 05:00:00 11.3 8 Sudoeste 20 Sudoeste 0 -- -- 92
2019-12-01 04:00:00 11.6 13 Sudoeste 22 Oeste 0 -- -- 93
2019-12-01 03:00:00 12 12 Sudoeste 20 Sudoeste 0 -- -- 92
2019-12-01 02:00:00 12.8 9 Sur 18 Sur 0 -- -- 82
2019-12-01 01:00:00 12.4 12 Sur 16 Sur 0 -- -- 85
2019-12-01 00:00:00 12.6 11 Sur 15 Sur 0 -- -- 83
2019-11-30 23:00:00 12.7 12 Sur 15 Sur 0 -- -- 81
2019-11-30 22:00:00 12.6 7 Sudoeste 15 Sudoeste 0 -- -- 82
2019-11-30 21:00:00 11.9 10 Sudoeste 13 Sudoeste 0 -- -- 85
2019-11-30 20:00:00 12.4 7 Sudoeste 10 Sudoeste 0 -- -- 83
2019-11-30 19:00:00 13.3 8 Oeste 18 Noroeste 0 -- -- 81
2019-11-30 18:00:00 14.5 12 Noroeste 25 Noroeste 0 -- -- 76
2019-11-30 17:00:00 16.2 13 Noroeste 20 Noroeste 0 -- -- 69
2019-11-30 16:00:00 17.7 10 Noroeste 18 Noroeste 0 -- -- 67
2019-11-30 15:00:00 18.1 10 Noroeste 20 Oeste 0 -- -- 65
2019-11-30 14:00:00 18.7 9 Oeste 15 Sudoeste 0 -- -- 62
2019-11-30 13:00:00 17.4 7 Sudoeste 12 Sudoeste 0 -- -- 65
2019-11-30 12:00:00 14.7 5 Nordeste 10 Sudeste 0 -- -- 74
2019-11-30 11:00:00 12.9 2 Norte 8 Sudeste 0 -- -- 83
2019-11-30 10:00:00 10.1 6 Este 13 Nordeste 0 -- -- 89
2019-11-30 09:00:00 8.2 7 Nordeste 13 Nordeste 0 -- -- 94
2019-11-30 08:00:00 8.1 8 Nordeste 12 Nordeste 0 -- -- 94
2019-11-30 07:00:00 8.7 2 Sudeste 9 Nordeste 0 -- -- 93
2019-11-30 06:00:00 8.8 8 Este 13 Este 0 -- -- 94
2019-11-30 05:00:00 9.1 0 Calma 11 Sur 0 -- -- 93
2019-11-30 04:00:00 9.2 4 Sudeste 13 Este 0 -- -- 94
2019-11-30 03:00:00 9.2 5 Nordeste 10 Nordeste 0 -- -- 93
2019-11-30 02:00:00 9.5 4 Nordeste 9 Este 0 -- -- 92
2019-11-30 01:00:00 10.4 5 Este 9 Este 0 -- -- 91
2019-11-30 00:00:00 10.3 5 Nordeste 8 Nordeste 0 -- -- 90
2019-11-29 23:00:00 11.5 3 Sudeste 9 Sudeste 0 -- -- 86
2019-11-29 22:00:00 11.6 6 Sur 8 Sudeste 0 -- -- 85
2019-11-29 21:00:00 12.3 2 Sudoeste 3 Sudoeste 0 -- -- 82
2019-11-29 20:00:00 12.9 2 Oeste 4 Noroeste 0 -- -- 79
2019-11-29 19:00:00 13.7 3 Noroeste 9 Noroeste 0 -- -- 77
2019-11-29 18:00:00 15.3 5 Noroeste 15 Noroeste 0 -- -- 71
2019-11-29 17:00:00 16.5 10 Noroeste 17 Noroeste 0 -- -- 67
2019-11-29 16:00:00 17.3 10 Noroeste 16 Noroeste 0 -- -- 63
2019-11-29 15:00:00 17.1 8 Noroeste 16 Norte 0 -- -- 65
2019-11-29 14:00:00 16.4 8 Norte 16 Noroeste 0 -- -- 67
2019-11-29 13:00:00 15.5 5 Norte 12 Norte 0 -- -- 71
2019-11-29 12:00:00 13.9 3 Nordeste 9 Este 0 -- -- 73
2019-11-29 11:00:00 11.2 4 Nordeste 14 Nordeste 0 -- -- 83
2019-11-29 10:00:00 9.3 6 Nordeste 12 Nordeste 0 -- -- 88
2019-11-29 09:00:00 7.6 9 Nordeste 13 Este 0 -- -- 94
2019-11-29 08:00:00 7.5 8 Este 11 Nordeste 0 -- -- 94
2019-11-29 07:00:00 8 8 Este 14 Nordeste 0 -- -- 92
2019-11-29 06:00:00 8.3 9 Este 12 Este 0 -- -- 92
2019-11-29 05:00:00 8.3 7 Nordeste 10 Este 0 -- -- 92
2019-11-29 04:00:00 8.7 5 Este 9 Este 0 -- -- 93
2019-11-29 03:00:00 8.9 5 Este 9 Nordeste 0 -- -- 93
2019-11-29 02:00:00 9.1 6 Este 9 Este 0 -- -- 93
2019-11-29 01:00:00 9.6 8 Nordeste 10 Este 0 -- -- 91
2019-11-29 00:00:00 9.9 6 Este 12 Este 0 -- -- 90
2019-11-28 23:00:00 10.4 5 Este 9 Este 0 -- -- 88
2019-11-28 22:00:00 11.3 5 Este 8 Este 0 -- -- 82
2019-11-28 21:00:00 11.5 5 Este 6 Este 0 -- -- 84
2019-11-28 20:00:00 12.6 3 Este 5 Este 0 -- -- 78
2019-11-28 19:00:00 13.1 3 Nordeste 8 Norte 0 -- -- 77
2019-11-28 18:00:00 13.4 6 Norte 15 Noroeste 0 -- -- 76
2019-11-28 17:00:00 14.5 10 Noroeste 18 Noroeste 0 -- -- 72
2019-11-28 16:00:00 14.9 5 Noroeste 13 Norte 0 -- -- 70
2019-11-28 15:00:00 14.9 6 Oeste 17 Norte 0 -- -- 71
2019-11-28 14:00:00 15.3 7 Oeste 15 Oeste 0 -- -- 68
2019-11-28 13:00:00 14.1 6 Oeste 12 Noroeste 0 -- -- 74
2019-11-28 12:00:00 13.2 4 Nordeste 9 Nordeste 0 -- -- 78
2019-11-28 11:00:00 11.5 4 Este 11 Este 0 -- -- 92
2019-11-28 10:00:00 10.2 6 Nordeste 10 Nordeste 0 -- -- 96
2019-11-28 09:00:00 9.4 3 Nordeste 11 Este 0 -- -- 96
2019-11-28 08:00:00 9.5 5 Sudeste 9 Sudeste 0 -- -- 95
2019-11-28 07:00:00 10.2 2 Este 5 Sudeste 0 -- -- 94
2019-11-28 06:00:00 10.3 0 Calma 8 Norte 0 -- -- 93
2019-11-28 05:00:00 10.9 5 Nordeste 12 Norte 0 -- -- 94
2019-11-28 04:00:00 11 5 Norte 12 Noroeste 0 -- -- 94
2019-11-28 03:00:00 11.6 4 Noroeste 9 Norte 0 -- -- 94
2019-11-28 02:00:00 11.8 4 Norte 9 Noroeste 0 -- -- 95
2019-11-28 01:00:00 11.8 4 Noroeste 10 Norte 0 -- -- 94
2019-11-28 00:00:00 12.2 5 Norte 9 Noroeste 0 -- -- 91
2019-11-27 23:00:00 12.4 0 Calma 6 Este 0 -- -- 87
2019-11-27 22:00:00 12.7 4 Este 7 Este 0 -- -- 86
2019-11-27 21:00:00 12.8 4 Oeste 8 Oeste 0 -- -- 86
2019-11-27 20:00:00 13.3 4 Oeste 12 Oeste 0 -- -- 82
2019-11-27 19:00:00 13.3 3 Noroeste 8 Noroeste 0 -- -- 80
2019-11-27 18:00:00 13.9 5 Noroeste 11 Noroeste 0 -- -- 76
2019-11-27 17:00:00 14.5 7 Noroeste 22 Noroeste 0 -- -- 74
2019-11-27 16:00:00 15.3 14 Oeste 23 Oeste 0 -- -- 68
2019-11-27 15:00:00 15.5 10 Noroeste 19 Oeste 0 -- -- 74
2019-11-27 14:00:00 14.9 10 Oeste 22 Sudoeste 0 -- -- 79
2019-11-27 06:00:00 -- -- -- -- -- -- -- -- --
2019-11-27 05:00:00 -- -- -- -- -- -- -- -- --
2019-11-27 04:00:00 13.4 13 Sudoeste 20 Sudoeste 0 -- -- 92
2019-11-27 03:00:00 13.2 6 Sur 14 Sudoeste 0 -- -- 90
2019-11-27 02:00:00 13.6 5 Sur 20 Sudoeste 0 -- -- 86
2019-11-27 01:00:00 13.4 4 Sudoeste 18 Oeste 0 -- -- 88
2019-11-27 00:00:00 13.1 5 Este 9 Este 0 -- -- 90
2019-11-26 23:00:00 13 7 Sudoeste 17 Sudoeste 0 -- -- 90
2019-11-26 22:00:00 13.5 4 Oeste 26 Oeste 0 -- -- 88
2019-11-26 21:00:00 13.9 5 Sur 13 Oeste 0 -- -- 90
2019-11-26 20:00:00 14.2 2 Sudoeste 10 Oeste 0 -- -- 93
2019-11-26 19:00:00 14.4 4 Sudoeste 19 Sudoeste 0 -- -- 93
2019-11-26 18:00:00 15.2 6 Oeste 12 Noroeste 0 -- -- 92
2019-11-26 17:00:00 16 9 Oeste 15 Oeste 0 -- -- 87
2019-11-26 16:00:00 16.5 3 Sudoeste 13 Oeste 0 -- -- 84
2019-11-26 15:00:00 16.1 0 Calma 9 Noroeste 0 -- -- 82
2019-11-26 14:00:00 15.9 4 Este 8 Noroeste 0 -- -- 83
2019-11-26 13:00:00 15.3 4 Norte 8 Nordeste 0 -- -- 86
2019-11-26 12:00:00 14.4 5 Nordeste 8 Nordeste 0 -- -- 92
2019-11-26 11:00:00 13.3 3 Nordeste 10 Nordeste 0 -- -- 97
2019-11-26 10:00:00 12.6 6 Nordeste 10 Nordeste 0 -- -- 98
2019-11-26 09:00:00 12.1 6 Sudeste 8 Sudeste 0 -- -- 98
2019-11-26 08:00:00 11.8 4 Sudeste 6 Sudeste 0 -- -- 98
2019-11-26 07:00:00 11.9 0 Calma 7 Este 0 -- -- 98
2019-11-26 06:00:00 12 4 Este 6 Sudeste 0 -- -- 98
2019-11-26 05:00:00 12.1 0 Calma 12 Oeste 0 -- -- 98
2019-11-26 04:00:00 12.8 6 Oeste 17 Oeste 0.2 -- -- 97
2019-11-26 03:00:00 13.6 12 Oeste 21 Oeste 0.4 -- -- 97
2019-11-26 02:00:00 13.7 4 Noroeste 6 Norte 0.4 -- -- 97
2019-11-26 01:00:00 13.9 5 Norte 10 Noroeste 0.2 -- -- 97
2019-11-26 00:00:00 13.8 4 Norte 6 Norte 0 -- -- 97
2019-11-25 23:00:00 13.7 4 Norte 8 Nordeste 0.2 -- -- 97
2019-11-25 22:00:00 13.6 4 Noroeste 11 Norte 0 -- -- 98
2019-11-25 21:00:00 14.1 3 Sudeste 10 Sudoeste 0.2 -- -- 97
2019-11-25 20:00:00 14.1 6 Sudoeste 10 Sudoeste 0.2 -- -- 97
2019-11-25 19:00:00 14.1 8 Sudoeste 18 Oeste 0.2 -- -- 97
2019-11-25 18:00:00 13.9 8 Sudoeste 15 Sudoeste 0 -- -- 97
2019-11-25 17:00:00 13.3 3 Sudoeste 9 Oeste 0 -- -- 98
2019-11-25 16:00:00 12.5 2 Nordeste 10 Nordeste 0.2 -- -- 97
2019-11-25 15:00:00 12 4 Nordeste 12 Nordeste 0.2 -- -- 97
2019-11-25 14:00:00 11.7 4 Nordeste 8 Nordeste 0 -- -- 97
2019-11-25 13:00:00 12 0 Calma 8 Nordeste 0 -- -- 97
2019-11-25 12:00:00 11.4 4 Sudeste 6 Este 0.4 -- -- 97
2019-11-25 11:00:00 10.5 3 Sudeste 10 Sudeste 0.2 -- -- 97
2019-11-25 10:00:00 10.1 9 Sudeste 12 Sudeste 0.2 -- -- 97
2019-11-25 09:00:00 9.2 4 Este 9 Este 0 -- -- 96
2019-11-25 08:00:00 9.3 3 Sudeste 10 Este 0 -- -- 94
2019-11-25 07:00:00 9 7 Nordeste 11 Nordeste 0 -- -- 92
2019-11-25 06:00:00 9.4 6 Este 10 Este 0 -- -- 90
2019-11-25 05:00:00 9.7 0 Calma 5 Este 0 -- -- 88
2019-11-25 04:00:00 9.5 0 Calma 10 Este 0 -- -- 87
2019-11-25 03:00:00 9.3 5 Este 10 Nordeste 0 -- -- 88
2019-11-25 02:00:00 9.1 7 Nordeste 12 Nordeste 0 -- -- 89
2019-11-25 01:00:00 9 3 Nordeste 7 Este 0 -- -- 84
2019-11-25 00:00:00 9.5 4 Nordeste 8 Este 0 -- -- 83
2019-11-24 23:00:00 9.8 5 Este 7 Este 0 -- -- 82
2019-11-24 22:00:00 10 4 Este 9 Este 0 -- -- 81
2019-11-24 21:00:00 10.1 5 Sudeste 8 Sudeste 0 -- -- 80
2019-11-24 20:00:00 10 3 Nordeste 6 Oeste 0 -- -- 80
2019-11-24 19:00:00 10 3 Noroeste 7 Noroeste 0 -- -- 78
2019-11-24 18:00:00 10.9 6 Noroeste 16 Noroeste 0 -- -- 75
2019-11-24 17:00:00 12.2 10 Noroeste 17 Noroeste 0 -- -- 70
2019-11-24 16:00:00 12.7 9 Noroeste 22 Oeste 0 -- -- 68
2019-11-24 15:00:00 11.9 7 Noroeste 15 Norte 0 -- -- 71
2019-11-24 14:00:00 11.3 7 Noroeste 19 Noroeste 0 -- -- 71
2019-11-24 13:00:00 10.7 10 Noroeste 17 Noroeste 0 -- -- 74
2019-11-24 12:00:00 10 3 Nordeste 9 Norte 0 -- -- 80
2019-11-24 11:00:00 8.9 3 Nordeste 9 Nordeste 0 -- -- 83
2019-11-24 10:00:00 7.6 5 Nordeste 8 Este 0 -- -- 88
2019-11-24 09:00:00 5.9 5 Este 7 Este 0 -- -- 93
2019-11-24 08:00:00 5.5 5 Este 7 Este 0 -- -- 93
2019-11-24 07:00:00 4.8 2 Este 6 Sudeste 0 -- -- 93
2019-11-24 06:00:00 5.7 4 Sur 6 Sur 0 -- -- 91
2019-11-24 05:00:00 5.8 3 Sudeste 6 Sur 0 -- -- 91
2019-11-24 04:00:00 6.1 6 Sur 10 Sur 0 -- -- 89
2019-11-24 03:00:00 6.6 2 Sudeste 4 Sur 0 -- -- 87
2019-11-24 02:00:00 7.2 0 Calma 7 Este 0 -- -- 85
2019-11-24 01:00:00 7.6 2 Noroeste 5 Noroeste 0 -- -- 83
2019-11-24 00:00:00 7.6 3 Noroeste 6 Sur 0 -- -- 84
2019-11-23 23:00:00 7.6 5 Oeste 10 Oeste 0 -- -- 84
2019-11-23 22:00:00 8.4 4 Noroeste 15 Oeste 0 -- -- 81
2019-11-23 21:00:00 8.9 12 Oeste 18 Oeste 0 -- -- 79
2019-11-23 20:00:00 9.8 9 Oeste 26 Noroeste 0 -- -- 75
2019-11-23 19:00:00 10.7 14 Oeste 28 Oeste 0 -- -- 72
2019-11-23 18:00:00 11.8 12 Oeste 34 Oeste 0 -- -- 68
2019-11-23 17:00:00 12.5 21 Oeste 42 Noroeste 0 -- -- 66
2019-11-23 16:00:00 12.2 30 Oeste 48 Oeste 0 -- -- 67
2019-11-23 15:00:00 12.2 27 Oeste 45 Oeste 0 -- -- 71
2019-11-23 14:00:00 11.7 25 Oeste 47 Sudoeste 0 -- -- 72
2019-11-23 13:00:00 10.9 21 Oeste 48 Oeste 0 -- -- 75
2019-11-23 12:00:00 10.3 23 Oeste 49 Oeste 0 -- -- 82
2019-11-23 11:00:00 10 27 Oeste 51 Oeste 0 -- -- 87
2019-11-23 10:00:00 9.6 26 Oeste 43 Oeste 0 -- -- 91
2019-11-23 09:00:00 9 15 Oeste 24 Oeste 0 -- -- 94
2019-11-23 08:00:00 8.8 14 Oeste 29 Oeste 0 -- -- 95
2019-11-23 07:00:00 9.1 17 Oeste 40 Oeste 2.6 -- -- 95
2019-11-23 06:00:00 9.7 17 Oeste 48 Oeste 1.4 -- -- 93
2019-11-23 05:00:00 11.1 34 Oeste 55 Oeste 0 -- -- 80
2019-11-23 04:00:00 11.3 33 Oeste 53 Sudoeste 0 -- -- 77
2019-11-23 03:00:00 11.3 26 Sudoeste 48 Sudoeste 0 -- -- 83
2019-11-23 02:00:00 11.7 33 Oeste 53 Sudoeste 0 -- -- 84
2019-11-23 01:00:00 11.9 28 Sudoeste 52 Oeste 0 -- -- 84
2019-11-23 00:00:00 11.8 27 Oeste 44 Sudoeste 0 -- -- 85
2019-11-22 23:00:00 11.4 22 Oeste 44 Oeste 0 -- -- 89
2019-11-22 22:00:00 11.3 24 Oeste 43 Oeste 0 -- -- 88
2019-11-22 21:00:00 12.3 19 Oeste 49 Oeste 0 -- -- 91
2019-11-22 20:00:00 13.8 31 Oeste 61 Sudoeste 2 -- -- 93
2019-11-22 19:00:00 14.8 32 Sudoeste 64 Sudoeste 3.2 -- -- 96
2019-11-22 18:00:00 13.7 27 Sudoeste 42 Sudoeste 2.4 -- -- 96
2019-11-22 17:00:00 14 28 Sur 42 Sur 0.2 -- -- 93
2019-11-22 16:00:00 13.9 31 Sur 44 Sur 1.2 -- -- 95
2019-11-22 15:00:00 13.1 27 Sur 40 Sur 0.6 -- -- 95
2019-11-22 14:00:00 13.7 26 Sur 40 Sur 0 -- -- 91
2019-11-22 13:00:00 13.3 24 Sur 41 Sur 0.6 -- -- 94
2019-11-22 12:00:00 13.4 19 Sur 32 Sur 0.4 -- -- 95
2019-11-22 11:00:00 12.8 18 Sur 28 Sur 1.6 -- -- 97
2019-11-22 10:00:00 12.4 14 Sur 20 Sur 0.6 -- -- 97
2019-11-22 09:00:00 11.8 11 Sur 17 Sur 3 -- -- 97
2019-11-22 08:00:00 11.1 7 Nordeste 15 Norte 4.2 -- -- 97
2019-11-22 07:00:00 11.2 8 Sur 17 Sur 2.6 -- -- 96
2019-11-22 06:00:00 11.3 13 Sur 19 Sur 0.8 -- -- 95
2019-11-22 05:00:00 10.9 8 Sur 15 Sur 0 -- -- 95
2019-11-22 04:00:00 10.8 6 Sur 14 Sur 0.2 -- -- 95
2019-11-22 03:00:00 10.9 13 Sur 19 Sur 0 -- -- 94
2019-11-22 02:00:00 10.9 12 Sur 18 Sur 0 -- -- 93
2019-11-22 01:00:00 11 14 Sur 26 Sur 0 -- -- 94
2019-11-22 00:00:00 11.1 19 Sur 26 Sur 0 -- -- 93
2019-11-21 23:00:00 11.3 15 Sur 24 Sudoeste 0 -- -- 93
2019-11-21 22:00:00 11.5 18 Sur 26 Sur 0 -- -- 93
2019-11-21 21:00:00 11.4 13 Sur 18 Sur 0 -- -- 94
2019-11-21 20:00:00 11.5 6 Sur 20 Sur 0 -- -- 94
2019-11-21 19:00:00 11.6 12 Sur 21 Sudoeste 0 -- -- 94
2019-11-21 18:00:00 11.8 18 Sudoeste 27 Sur 0 -- -- 94
2019-11-21 17:00:00 11.9 20 Sur 30 Sur 1 -- -- 92
2019-11-21 16:00:00 12.4 17 Sur 34 Sur 0 -- -- 89
2019-11-21 15:00:00 13.9 18 Sur 27 Sur 0 -- -- 81
2019-11-21 14:00:00 13.5 13 Sur 22 Sur 0 -- -- 82
2019-11-21 13:00:00 12.8 15 Sur 23 Sur 0 -- -- 84
2019-11-21 12:00:00 11.8 6 Sur 15 Sur 0 -- -- 91
2019-11-21 11:00:00 10.4 10 Sur 23 Sur 0 -- -- 93
2019-11-21 10:00:00 10.1 14 Sur 21 Sur 0 -- -- 94
2019-11-21 09:00:00 9.3 10 Sur 15 Sur 0.2 -- -- 95
2019-11-21 08:00:00 9 10 Sur 16 Sur 0 -- -- 96
2019-11-21 07:00:00 8.8 11 Sur 22 Sur 0 -- -- 96
2019-11-21 06:00:00 8.6 16 Sur 21 Sur 0.2 -- -- 96
2019-11-21 05:00:00 8.4 13 Sur 22 Sur 0 -- -- 95
2019-11-21 04:00:00 8.5 17 Sur 21 Sur 0.2 -- -- 95
2019-11-21 03:00:00 8.5 14 Sur 22 Sur 0 -- -- 95
2019-11-21 02:00:00 8.4 7 Sur 19 Sur 3 -- -- 95
2019-11-21 01:00:00 8.4 9 Sur 13 Sur 1.2 -- -- 94
2019-11-21 00:00:00 8.5 7 Sudoeste 24 Sur 0.2 -- -- 91
2019-11-20 23:00:00 8.4 17 Sur 22 Sur 0 -- -- 91
2019-11-20 22:00:00 7.7 14 Sur 22 Sur 0 -- -- 93
2019-11-20 21:00:00 8.6 14 Sur 27 Sur 0 -- -- 91
2019-11-20 20:00:00 9 18 Sur 24 Sur 0 -- -- 91
2019-11-20 19:00:00 9.2 18 Sur 27 Sur 0 -- -- 92
2019-11-20 18:00:00 9.8 18 Sur 29 Sur 0.2 -- -- 91
2019-11-20 17:00:00 9.6 10 Sur 20 Sudeste 0.4 -- -- 92
2019-11-20 16:00:00 9.3 7 Este 18 Sur 0.4 -- -- 90
2019-11-20 15:00:00 10.4 12 Sur 25 Sur 0.2 -- -- 81
2019-11-20 14:00:00 9.2 4 Este 8 Nordeste 0 -- -- 81
2019-11-20 13:00:00 8.4 4 Nordeste 14 Sudeste 0.4 -- -- 90
2019-11-20 12:00:00 7.8 5 Este 9 Sudeste 0 -- -- 83
2019-11-20 11:00:00 7.6 6 Este 10 Sudeste 0 -- -- 79
2019-11-20 10:00:00 7.2 3 Sur 8 Nordeste 0 -- -- 78
2019-11-20 09:00:00 5.5 2 Este 10 Este 0 -- -- 81
2019-11-20 08:00:00 5 4 Sudeste 9 Este 0 -- -- 83
2019-11-20 07:00:00 5.1 6 Nordeste 8 Este 0 -- -- 84
2019-11-20 06:00:00 5.4 3 Este 8 Este 0 -- -- 81
2019-11-20 05:00:00 5.4 4 Nordeste 12 Este 0 -- -- 90
2019-11-20 04:00:00 6 9 Nordeste 11 Nordeste 0 -- -- 89
2019-11-20 03:00:00 6.6 3 Nordeste 8 Nordeste 0 -- -- 81
2019-11-20 02:00:00 7.1 6 Nordeste 8 Nordeste 0 -- -- 76
2019-11-20 01:00:00 7.5 6 Este 8 Este 0 -- -- 77
2019-11-20 00:00:00 8.1 5 Este 7 Nordeste 0 -- -- 72
2019-11-19 23:00:00 8.3 4 Este 6 Este 0 -- -- 70
2019-11-19 22:00:00 8.5 5 Nordeste 6 Nordeste 0 -- -- 69
2019-11-19 21:00:00 9 0 Calma 5 Nordeste 0 -- -- 65
2019-11-19 20:00:00 9.3 4 Este 6 Este 0 -- -- 63
2019-11-19 19:00:00 9.6 4 Norte 6 Norte 0 -- -- 61
2019-11-19 18:00:00 10.6 5 Noroeste 10 Noroeste 0 -- -- 56
2019-11-19 17:00:00 12.7 4 Noroeste 10 Oeste 0 -- -- 45
2019-11-19 16:00:00 12.9 8 Oeste 14 Oeste 0 -- -- 42
2019-11-19 15:00:00 12.4 7 Noroeste 14 Oeste 0 -- -- 42
2019-11-19 14:00:00 11.9 4 Noroeste 8 Noroeste 0 -- -- 57
2019-11-19 13:00:00 10.4 0 Calma 6 Nordeste 0 -- -- 70
2019-11-19 12:00:00 8.7 2 Nordeste 9 Nordeste 0 -- -- 78
2019-11-19 11:00:00 7.1 7 Nordeste 10 Nordeste 0 -- -- 82
2019-11-19 10:00:00 5.5 4 Nordeste 10 Sur 0 -- -- 86
2019-11-19 09:00:00 3.7 2 Sudeste 12 Nordeste 0 -- -- 91
2019-11-19 08:00:00 3.9 10 Nordeste 12 Nordeste 0 -- -- 91
2019-11-19 07:00:00 4 5 Este 14 Nordeste 0 -- -- 92
2019-11-19 06:00:00 4.3 4 Este 8 Sur 0 -- -- 90
2019-11-19 05:00:00 4.4 2 Sur 10 Nordeste 0 -- -- 91
2019-11-19 04:00:00 4.5 7 Nordeste 13 Nordeste 0 -- -- 91
2019-11-19 03:00:00 5 4 Este 11 Este 0 -- -- 88
2019-11-19 02:00:00 5.5 6 Este 10 Nordeste 0 -- -- 88
2019-11-19 01:00:00 6 8 Nordeste 10 Nordeste 0 -- -- 88
2019-11-19 00:00:00 6.4 7 Nordeste 10 Nordeste 0 -- -- 87
2019-11-18 23:00:00 6.2 3 Nordeste 6 Norte 0 -- -- 85
2019-11-18 22:00:00 7.1 0 Calma 5 Nordeste 0 -- -- 82
2019-11-18 21:00:00 7.9 4 Nordeste 9 Este 0 -- -- 78
2019-11-18 20:00:00 8.2 5 Este 9 Noroeste 0 -- -- 76
2019-11-18 19:00:00 8.7 5 Noroeste 10 Noroeste 0 -- -- 75
2019-11-18 18:00:00 10 6 Noroeste 20 Norte 0 -- -- 71
2019-11-18 17:00:00 10.5 11 Noroeste 23 Norte 0 -- -- 68
2019-11-18 16:00:00 10.2 13 Noroeste 26 Noroeste 0 -- -- 75
2019-11-18 15:00:00 10.2 11 Noroeste 23 Noroeste 0 -- -- 76
2019-11-18 14:00:00 10 15 Noroeste 27 Noroeste 0 -- -- 81
2019-11-18 13:00:00 8.6 10 Noroeste 19 Noroeste 0 -- -- 87
2019-11-18 12:00:00 7.2 11 Noroeste 18 Noroeste 0 -- -- 91
2019-11-18 11:00:00 6.9 9 Noroeste 21 Noroeste 0 -- -- 93
2019-11-18 10:00:00 6.5 11 Noroeste 24 Noroeste 0 -- -- 95
2019-11-18 09:00:00 6.3 19 Noroeste 28 Noroeste 0 -- -- 94
2019-11-18 08:00:00 6.4 17 Noroeste 30 Noroeste 0 -- -- 94
2019-11-18 07:00:00 6.9 15 Noroeste 31 Noroeste 0.2 -- -- 94
2019-11-18 06:00:00 9.2 15 Noroeste 31 Oeste 0 -- -- 96
2019-11-18 05:00:00 9.8 15 Oeste 41 Oeste 1.2 -- -- 96
2019-11-18 04:00:00 10.9 21 Oeste 44 Sudoeste 4.8 -- -- 96
2019-11-18 03:00:00 10.5 13 Sudoeste 47 Sudoeste 5.8 -- -- 95
2019-11-18 02:00:00 11 23 Oeste 50 Oeste 3.8 -- -- 95
2019-11-18 01:00:00 11.7 26 Sudoeste 40 Sudoeste 0.4 -- -- 91
2019-11-18 00:00:00 11.8 21 Sudoeste 35 Oeste 0.2 -- -- 91
2019-11-17 23:00:00 12.2 20 Sudoeste 37 Sudoeste 0 -- -- 89
2019-11-17 22:00:00 12 23 Sudoeste 38 Sudoeste 0 -- -- 90
2019-11-17 21:00:00 11 17 Sudoeste 26 Sudoeste 0 -- -- 93
2019-11-17 20:00:00 10.7 16 Sur 24 Sudoeste 0 -- -- 94
2019-11-17 19:00:00 10.7 15 Sudoeste 22 Sudoeste 0 -- -- 96
2019-11-17 18:00:00 10.4 14 Sudoeste 21 Sur 0.2 -- -- 97
2019-11-17 17:00:00 9.1 6 Sudeste 11 Sur 0 -- -- 97
2019-11-17 16:00:00 7.3 6 Nordeste 9 Este 0 -- -- 96
2019-11-17 15:00:00 6.9 5 Nordeste 10 Nordeste 0.2 -- -- 96
2019-11-17 14:00:00 6.5 4 Nordeste 8 Este 0.2 -- -- 95
2019-11-17 13:00:00 6.1 5 Nordeste 9 Este 0.6 -- -- 95
2019-11-17 12:00:00 5.9 3 Este 6 Este 0.2 -- -- 94
2019-11-17 11:00:00 6 0 Calma 17 Sudoeste 0.4 -- -- 91
2019-11-17 10:00:00 4 0 Calma 13 Nordeste 0 -- -- 87
2019-11-17 09:00:00 2.4 6 Este 9 Este 0 -- -- 89
2019-11-17 08:00:00 1.7 6 Este 10 Nordeste 0 -- -- 90
2019-11-17 07:00:00 1.9 9 Nordeste 12 Nordeste 0 -- -- 90
2019-11-17 06:00:00 2.1 9 Nordeste 12 Nordeste 0 -- -- 87
2019-11-17 05:00:00 2.8 5 Este 8 Sur 0 -- -- 84
2019-11-17 04:00:00 3.4 4 Este 8 Este 0 -- -- 81
2019-11-17 03:00:00 3.7 2 Este 7 Sur 0 -- -- 80
2019-11-17 02:00:00 3.8 3 Sudeste 8 Sudeste 0 -- -- 79
2019-11-17 01:00:00 4 4 Sudeste 9 Sur 0 -- -- 76
2019-11-17 00:00:00 4.6 2 Este 8 Este 0 -- -- 75
2019-11-16 23:00:00 5 6 Este 9 Este 0 -- -- 72
2019-11-16 22:00:00 5.6 5 Este 10 Este 0 -- -- 70
2019-11-16 21:00:00 6.5 4 Sudeste 6 Sur 0 -- -- 66
2019-11-16 20:00:00 7.2 3 Este 5 Este 0 -- -- 62
2019-11-16 19:00:00 7.6 4 Noroeste 9 Noroeste 0 -- -- 61
2019-11-16 18:00:00 8.8 7 Noroeste 17 Noroeste 0 -- -- 59
2019-11-16 17:00:00 9.7 11 Noroeste 19 Noroeste 0 -- -- 55
2019-11-16 16:00:00 10.1 10 Noroeste 18 Noroeste 0 -- -- 58
2019-11-16 15:00:00 9.7 6 Noroeste 14 Noroeste 0 -- -- 59
2019-11-16 14:00:00 8.8 10 Noroeste 15 Noroeste 0 -- -- 63
2019-11-16 13:00:00 7.8 10 Noroeste 17 Noroeste 0 -- -- 65
2019-11-16 12:00:00 7.1 5 Noroeste 10 Oeste 0 -- -- 71
2019-11-16 11:00:00 5 6 Noroeste 10 Noroeste 0 -- -- 74
2019-11-16 10:00:00 4.3 4 Noroeste 7 Noroeste 0 -- -- 76
2019-11-16 09:00:00 3.3 0 Calma 5 Sudeste 0 -- -- 85
2019-11-16 08:00:00 2 2 Norte 8 Noroeste 0 -- -- 86
2019-11-16 07:00:00 2.6 4 Noroeste 6 Noroeste 0 -- -- 83
2019-11-16 06:00:00 2.3 0 Calma 5 Sur 0 -- -- 85
2019-11-16 05:00:00 2.7 3 Oeste 5 Oeste 0 -- -- 85
2019-11-16 04:00:00 3.4 3 Sudoeste 5 Sudoeste 0 -- -- 84
2019-11-16 03:00:00 3.7 0 Calma 8 Este 0 -- -- 88
2019-11-16 02:00:00 3.9 5 Este 9 Nordeste 0 -- -- 89
2019-11-16 01:00:00 3.6 4 Este 15 Sur 0 -- -- 85
2019-11-16 00:00:00 3.7 11 Sur 14 Sur 0 -- -- 86
2019-11-15 23:00:00 4.6 3 Sudeste 6 Sudeste 0 -- -- 81
2019-11-15 22:00:00 4.8 4 Este 6 Nordeste 0 -- -- 82
2019-11-15 21:00:00 4.9 5 Nordeste 8 Este 0 -- -- 82
2019-11-15 20:00:00 5.3 3 Sudeste 8 Este 0 -- -- 80
2019-11-15 19:00:00 5.3 4 Noroeste 9 Oeste 0 -- -- 82
2019-11-15 18:00:00 5.7 6 Oeste 24 Noroeste 0.2 -- -- 84
2019-11-15 17:00:00 6.5 10 Noroeste 27 Oeste 0 -- -- 75
2019-11-15 16:00:00 6.9 11 Noroeste 30 Oeste 0 -- -- 69
2019-11-15 15:00:00 8.8 13 Oeste 27 Oeste 0 -- -- 57
2019-11-15 14:00:00 7.5 15 Noroeste 28 Noroeste 0 -- -- 62
2019-11-15 13:00:00 7.9 14 Noroeste 30 Noroeste 0 -- -- 64
2019-11-15 12:00:00 7 13 Oeste 27 Oeste 0 -- -- 73
2019-11-15 11:00:00 6.5 13 Noroeste 25 Noroeste 0 -- -- 77
2019-11-15 10:00:00 5.9 6 Oeste 15 Oeste 0 -- -- 84
2019-11-15 09:00:00 4.6 10 Sudoeste 15 Sudoeste 0 -- -- 91
2019-11-15 08:00:00 3.7 5 Oeste 13 Oeste 0 -- -- 90
2019-11-15 07:00:00 4.2 9 Oeste 24 Oeste 0 -- -- 88
2019-11-15 06:00:00 4.9 18 Oeste 26 Oeste 0 -- -- 86
2019-11-15 05:00:00 5.4 14 Oeste 28 Oeste 0 -- -- 86
2019-11-15 04:00:00 6 15 Oeste 32 Oeste 0 -- -- 83
2019-11-15 03:00:00 6.5 21 Oeste 35 Oeste 0 -- -- 82
2019-11-15 02:00:00 6.8 17 Oeste 32 Oeste 0 -- -- 83
2019-11-15 01:00:00 7.1 18 Sudoeste 30 Sudoeste 0 -- -- 83
2019-11-15 00:00:00 7.2 19 Sudoeste 31 Oeste 0 -- -- 81
2019-11-14 23:00:00 7.7 18 Oeste 40 Sudoeste 0 -- -- 79
2019-11-14 22:00:00 8.1 21 Sudoeste 34 Sudoeste 0 -- -- 79
2019-11-14 21:00:00 8.2 18 Sudoeste 30 Sudoeste 0 -- -- 78
2019-11-14 20:00:00 8 15 Sudoeste 30 Oeste 0 -- -- 77
2019-11-14 19:00:00 7.7 15 Oeste 42 Oeste 0 -- -- 76
2019-11-14 18:00:00 8.6 25 Oeste 48 Oeste 0 -- -- 75
2019-11-14 17:00:00 9.1 18 Oeste 35 Oeste 0 -- -- 86
2019-11-14 16:00:00 9.2 25 Oeste 37 Oeste 0 -- -- 91
2019-11-14 15:00:00 9 23 Oeste 44 Oeste 2 -- -- 96
2019-11-14 14:00:00 8.8 24 Oeste 52 Oeste 0.8 -- -- 93
2019-11-14 13:00:00 10.1 26 Oeste 47 Oeste 0.2 -- -- 92
2019-11-14 12:00:00 10.9 31 Sudoeste 50 Sudoeste 0 -- -- 83
2019-11-14 11:00:00 10.8 27 Sudoeste 43 Oeste 0 -- -- 83
2019-11-14 10:00:00 9.9 15 Sudoeste 28 Sudoeste 0 -- -- 85
2019-11-14 09:00:00 8.9 15 Sudoeste 23 Sudoeste 0 -- -- 89
2019-11-14 08:00:00 8.5 17 Sudoeste 23 Sudoeste 0 -- -- 91
2019-11-14 07:00:00 9.1 13 Oeste 25 Oeste 0 -- -- 92
2019-11-14 06:00:00 10.3 15 Oeste 33 Sudoeste 0 -- -- 92
2019-11-14 05:00:00 11.1 18 Oeste 32 Oeste 0 -- -- 92
2019-11-14 04:00:00 11.8 11 Oeste 22 Sudoeste 0 -- -- 92
2019-11-14 03:00:00 11.5 9 Sudoeste 19 Sudoeste 0 -- -- 92
2019-11-14 02:00:00 11.7 13 Sudoeste 22 Sudoeste 0 -- -- 93
2019-11-14 01:00:00 11.8 12 Sudoeste 21 Sudoeste 0 -- -- 93
2019-11-14 00:00:00 12 17 Sur 21 Sur 0 -- -- 93
2019-11-13 23:00:00 12.4 10 Sudoeste 22 Oeste 0 -- -- 91
2019-11-13 22:00:00 12.1 8 Sudoeste 12 Sudoeste 0 -- -- 92
2019-11-13 21:00:00 12.1 7 Sur 16 Sudoeste 0 -- -- 92
2019-11-13 20:00:00 12.7 13 Sudoeste 17 Sudoeste 0 -- -- 91
2019-11-13 19:00:00 13.4 9 Sudoeste 16 Oeste 0 -- -- 88
2019-11-13 18:00:00 14.3 12 Oeste 24 Sudoeste 0 -- -- 85
2019-11-13 17:00:00 14.7 11 Oeste 25 Sudoeste 0 -- -- 87
2019-11-13 16:00:00 14.1 15 Oeste 28 Oeste 0 -- -- 90
2019-11-13 15:00:00 14 21 Oeste 33 Oeste 0 -- -- 91
2019-11-13 14:00:00 13.5 19 Oeste 34 Oeste 0 -- -- 93
2019-11-13 13:00:00 12.6 21 Oeste 33 Oeste 0.8 -- -- 96
2019-11-13 12:00:00 12 22 Oeste 36 Oeste 0.6 -- -- 94
2019-11-13 11:00:00 11.8 20 Oeste 32 Sudoeste 0 -- -- 95
2019-11-13 10:00:00 11.3 16 Oeste 30 Sudoeste 0.2 -- -- 93
2019-11-13 09:00:00 11 14 Sudoeste 31 Sudoeste 0.2 -- -- 92
2019-11-13 08:00:00 11.5 20 Sudoeste 36 Oeste 0 -- -- 89
2019-11-13 07:00:00 11.2 19 Sudoeste 30 Oeste 0 -- -- 90
2019-11-13 06:00:00 11.1 17 Sudoeste 24 Oeste 0 -- -- 88
2019-11-13 05:00:00 11.1 16 Oeste 30 Sudoeste 0 -- -- 83
2019-11-13 04:00:00 11 14 Sudoeste 21 Sudoeste 0 -- -- 80
2019-11-13 03:00:00 10.4 9 Sudoeste 19 Sudoeste 0 -- -- 79
2019-11-13 02:00:00 9.7 6 Oeste 15 Sudoeste 0 -- -- 77
2019-11-13 01:00:00 9.4 2 Sudoeste 9 Sur 0 -- -- 73
2019-11-13 00:00:00 9.4 6 Sur 10 Sur 0 -- -- 76
2019-11-12 23:00:00 9.5 0 Calma 6 Noroeste 0 -- -- 74
2019-11-12 22:00:00 9.9 3 Sur 6 Sur 0 -- -- 77
2019-11-12 21:00:00 10.6 2 Sur 10 Oeste 0 -- -- 77
2019-11-12 20:00:00 10.9 2 Oeste 5 Oeste 0 -- -- 78
2019-11-12 19:00:00 11.2 3 Sudoeste 10 Oeste 0 -- -- 77
2019-11-12 18:00:00 12.8 8 Oeste 17 Oeste 0 -- -- 71
2019-11-12 17:00:00 13.6 10 Noroeste 23 Noroeste 0 -- -- 67
2019-11-12 16:00:00 13.6 11 Oeste 21 Oeste 0 -- -- 73
2019-11-12 15:00:00 13.1 13 Noroeste 19 Noroeste 0.2 -- -- 73
2019-11-12 14:00:00 12.5 9 Oeste 16 Noroeste 0 -- -- 81
2019-11-12 13:00:00 10.4 8 Noroeste 15 Noroeste 0 -- -- 96
2019-11-12 12:00:00 9.7 8 Oeste 13 Oeste 0 -- -- 97
2019-11-12 11:00:00 8.9 5 Oeste 9 Oeste 0 -- -- 97
2019-11-12 10:00:00 7.5 4 Sudoeste 6 Sudoeste 0 -- -- 97
2019-11-12 09:00:00 7 0 Calma 7 Oeste 0 -- -- 97
2019-11-12 08:00:00 7.2 2 Sudeste 6 Nordeste 0 -- -- 96
2019-11-12 07:00:00 7.5 2 Oeste 5 Oeste 0 -- -- 96
2019-11-12 06:00:00 8 5 Este 10 Nordeste 0 -- -- 96
2019-11-12 05:00:00 8.7 5 Nordeste 9 Este 0 -- -- 94
2019-11-12 04:00:00 9.6 3 Oeste 6 Noroeste 0 -- -- 95
2019-11-12 03:00:00 10.2 3 Este 8 Nordeste 0 -- -- 94
2019-11-12 02:00:00 10.2 3 Nordeste 4 Nordeste 0 -- -- 94
2019-11-12 01:00:00 10.5 0 Calma 6 Nordeste 0 -- -- 93
2019-11-12 00:00:00 10.8 3 Este 7 Este 0 -- -- 93